createdAt,value
2022-10-08T00:01:54.697Z,25.20
2022-10-08T00:08:04.330Z,25.10
2022-10-08T00:14:14.464Z,25.10
2022-10-08T00:20:25.810Z,25.10
2022-10-08T00:26:43.570Z,25.10
2022-10-08T00:33:00.056Z,25.10
2022-10-08T00:39:15.300Z,24.90
2022-10-08T00:45:26.614Z,24.90
2022-10-08T00:51:39.724Z,24.80
2022-10-08T00:57:50.687Z,24.90
2022-10-08T01:04:04.333Z,24.90
2022-10-08T01:10:22.162Z,24.80
2022-10-08T01:16:36.074Z,24.70
2022-10-08T01:22:59.237Z,24.70
2022-10-08T01:29:14.740Z,24.70
2022-10-08T01:35:29.797Z,24.60
2022-10-08T01:41:42.756Z,24.60
2022-10-08T01:47:52.080Z,24.60
2022-10-08T01:54:03.647Z,24.60
2022-10-08T02:00:21.378Z,24.50
2022-10-08T02:06:34.167Z,24.50
2022-10-08T02:12:44.655Z,24.40
2022-10-08T02:18:55.621Z,24.40
2022-10-08T02:25:12.265Z,24.40
2022-10-08T02:31:26.520Z,24.40
2022-10-08T02:37:36.728Z,24.40
2022-10-08T02:43:49.431Z,24.40
2022-10-08T02:50:02.333Z,24.40
2022-10-08T02:56:17.670Z,24.30
2022-10-08T03:02:32.152Z,24.30
2022-10-08T03:08:46.616Z,24.40
2022-10-08T03:15:01.918Z,24.30
2022-10-08T03:21:12.982Z,24.30
2022-10-08T03:27:27.487Z,24.30
2022-10-08T03:33:41.857Z,24.30
2022-10-08T03:39:54.725Z,24.30
2022-10-08T03:46:06.281Z,24.20
2022-10-08T03:52:15.697Z,24.20
2022-10-08T03:58:27.845Z,24.20
2022-10-08T04:04:39.768Z,24.10
2022-10-08T04:10:51.747Z,24.20
2022-10-08T04:17:03.063Z,24.20
2022-10-08T04:23:15.612Z,24.10
2022-10-08T04:29:30.655Z,24.10
2022-10-08T04:35:42.093Z,24.00
2022-10-08T04:41:54.893Z,24.00
2022-10-08T04:48:05.824Z,24.00
2022-10-08T04:54:16.854Z,24.00
2022-10-08T05:00:30.239Z,24.00
2022-10-08T05:06:42.984Z,23.90
2022-10-08T05:12:56.461Z,23.90
2022-10-08T05:19:11.002Z,23.80
2022-10-08T05:25:22.187Z,23.80
2022-10-08T05:31:34.837Z,23.80
2022-10-08T05:37:47.715Z,23.80
2022-10-08T05:44:00.112Z,23.80
2022-10-08T05:50:15.278Z,23.70
2022-10-08T05:56:28.771Z,23.70
2022-10-08T06:02:37.400Z,23.70
2022-10-08T06:08:50.331Z,23.70
2022-10-08T06:15:03.070Z,23.70
2022-10-08T06:21:17.101Z,23.60
2022-10-08T06:27:30.798Z,23.60
2022-10-08T06:33:45.186Z,23.60
2022-10-08T06:39:57.712Z,23.60
2022-10-08T06:46:11.100Z,23.60
2022-10-08T06:52:22.601Z,23.50
2022-10-08T06:58:35.712Z,23.50
2022-10-08T07:04:47.035Z,23.50
2022-10-08T07:10:59.739Z,23.50
2022-10-08T07:17:12.604Z,23.50
2022-10-08T07:23:25.494Z,23.40
2022-10-08T07:29:40.063Z,23.40
2022-10-08T07:35:53.239Z,23.40
2022-10-08T07:42:08.091Z,23.40
2022-10-08T07:48:23.031Z,23.30
2022-10-08T07:54:32.644Z,23.30
2022-10-08T08:00:47.524Z,23.30
2022-10-08T08:07:02.008Z,23.20
2022-10-08T08:13:17.595Z,23.20
2022-10-08T08:19:29.093Z,23.20
2022-10-08T08:25:39.834Z,23.20
2022-10-08T08:31:49.813Z,23.20
2022-10-08T08:38:00.723Z,23.10
2022-10-08T08:44:18.525Z,23.10
2022-10-08T08:50:33.753Z,23.10
2022-10-08T08:56:47.438Z,23.10
2022-10-08T09:03:04.961Z,23.00
2022-10-08T09:09:23.194Z,23.00
2022-10-08T09:15:36.126Z,23.00
2022-10-08T09:21:51.510Z,23.00
2022-10-08T09:28:07.253Z,23.00
2022-10-08T09:34:26.779Z,22.90
2022-10-08T09:40:35.920Z,22.90
2022-10-08T09:46:50.331Z,22.80
2022-10-08T09:53:01.295Z,22.90
2022-10-08T09:59:16.917Z,22.90
2022-10-08T10:05:30.896Z,22.80
2022-10-08T10:11:48.514Z,22.80
2022-10-08T10:18:02.070Z,22.80
2022-10-08T10:24:26.747Z,22.80
2022-10-08T10:30:37.856Z,22.70
2022-10-08T10:36:51.830Z,22.70
2022-10-08T10:43:06.885Z,22.70
2022-10-08T10:49:19.773Z,22.70
2022-10-08T10:55:33.647Z,22.60
2022-10-08T11:01:51.661Z,22.60
2022-10-08T11:08:27.943Z,22.60
2022-10-08T11:14:50.503Z,22.60
2022-10-08T11:21:26.965Z,22.60
2022-10-08T11:27:44.736Z,22.60
2022-10-08T11:33:57.396Z,22.60
2022-10-08T11:40:14.090Z,22.80
2022-10-08T11:46:36.680Z,23.00
2022-10-08T11:52:50.243Z,23.20
2022-10-08T11:59:02.476Z,23.50
2022-10-08T12:05:35.130Z,23.80
2022-10-08T12:11:58.653Z,24.00
2022-10-08T12:18:14.550Z,23.80
2022-10-08T12:31:33.252Z,24.00
2022-10-08T12:38:03.043Z,24.10
2022-10-08T12:44:20.606Z,23.90
2022-10-08T12:50:47.703Z,23.70
2022-10-08T12:56:58.006Z,23.90
2022-10-08T13:03:08.443Z,24.10
2022-10-08T13:09:31.730Z,24.00
2022-10-08T13:15:45.282Z,23.90
2022-10-08T13:22:02.651Z,23.80
2022-10-08T13:28:24.399Z,23.70
2022-10-08T13:34:30.413Z,23.70
2022-10-08T13:40:39.871Z,23.80
2022-10-08T13:46:50.996Z,24.20
2022-10-08T13:53:03.258Z,24.50
2022-10-08T13:59:14.261Z,24.60
2022-10-08T14:05:27.467Z,24.40
2022-10-08T14:11:41.882Z,24.30
2022-10-08T14:17:55.337Z,24.30
2022-10-08T14:24:09.339Z,24.60
2022-10-08T14:30:24.382Z,24.70
2022-10-08T14:36:37.524Z,24.70
2022-10-08T14:42:48.249Z,24.70
2022-10-08T14:48:58.703Z,24.60
2022-10-08T14:55:09.109Z,24.70
2022-10-08T15:01:22.459Z,24.70
2022-10-08T15:07:37.686Z,24.60
2022-10-08T15:13:50.902Z,24.70
2022-10-08T15:20:03.851Z,24.60
2022-10-08T15:26:17.186Z,24.50
2022-10-08T15:32:31.067Z,24.40
2022-10-08T15:38:45.320Z,24.50
2022-10-08T15:44:58.629Z,24.60
2022-10-08T15:51:10.701Z,24.70
2022-10-08T15:57:21.903Z,24.80
2022-10-08T16:03:35.392Z,24.70
2022-10-08T16:09:48.558Z,24.60
2022-10-08T16:15:59.936Z,24.50
2022-10-08T16:22:09.954Z,24.40
2022-10-08T16:28:22.462Z,24.40
2022-10-08T16:34:33.064Z,24.30
2022-10-08T16:40:44.902Z,24.20
2022-10-08T16:46:59.055Z,24.20
2022-10-08T16:53:12.474Z,24.20
2022-10-08T16:59:25.805Z,24.20
2022-10-08T17:05:36.120Z,24.10
2022-10-08T17:11:49.601Z,24.30
2022-10-08T17:18:03.517Z,24.50
2022-10-08T17:24:16.716Z,24.50
2022-10-08T17:30:27.052Z,24.40
2022-10-08T17:36:43.362Z,24.30
2022-10-08T17:42:57.329Z,24.20
2022-10-08T17:49:10.187Z,24.10
2022-10-08T17:55:24.538Z,24.10
2022-10-08T18:01:36.423Z,24.10
2022-10-08T18:07:50.273Z,24.10
2022-10-08T18:14:02.987Z,24.00
2022-10-08T18:20:17.499Z,24.00
2022-10-08T18:26:30.867Z,24.00
2022-10-08T18:32:46.376Z,23.90
2022-10-08T18:39:03.403Z,24.00
2022-10-08T18:45:17.182Z,24.30
2022-10-08T18:51:29.722Z,24.40
2022-10-08T18:57:45.161Z,24.30
2022-10-08T19:03:57.431Z,24.20
2022-10-08T19:10:11.231Z,24.10
2022-10-08T19:16:22.608Z,24.00
2022-10-08T19:22:36.889Z,24.00
2022-10-08T19:28:48.161Z,23.90
2022-10-08T19:34:56.174Z,23.90
2022-10-08T19:41:05.597Z,23.90
2022-10-08T19:47:22.391Z,23.80
2022-10-08T19:53:32.512Z,23.90
2022-10-08T19:59:44.635Z,23.90
2022-10-08T20:05:55.812Z,23.80
2022-10-08T20:12:07.583Z,23.80
2022-10-08T20:18:21.092Z,23.80
2022-10-08T20:24:34.770Z,24.10
2022-10-08T20:30:48.766Z,24.30
2022-10-08T20:37:04.192Z,24.30
2022-10-08T20:43:16.947Z,24.20
2022-10-08T20:49:28.273Z,24.00
2022-10-08T20:55:38.156Z,24.10
2022-10-08T21:01:50.766Z,24.10
2022-10-08T21:08:02.936Z,24.00
2022-10-08T21:14:18.939Z,24.00
2022-10-08T21:20:32.995Z,24.00
2022-10-08T21:26:47.692Z,24.10
2022-10-08T21:33:01.645Z,24.00
2022-10-08T21:39:15.526Z,24.00
2022-10-08T21:45:28.997Z,24.10
2022-10-08T21:51:45.439Z,24.10
2022-10-08T21:57:58.490Z,24.10
2022-10-08T22:04:09.645Z,24.10
2022-10-08T22:10:23.231Z,24.10
2022-10-08T22:16:37.437Z,24.00
2022-10-08T22:22:52.741Z,24.00
2022-10-08T22:29:05.529Z,24.10
2022-10-08T22:35:21.705Z,24.10
2022-10-08T22:41:34.293Z,24.10
2022-10-08T22:47:48.619Z,24.10
2022-10-08T22:54:01.201Z,24.10
2022-10-08T23:00:18.551Z,24.10
2022-10-08T23:06:34.215Z,24.10
2022-10-08T23:12:46.064Z,24.10
2022-10-08T23:19:02.099Z,24.10
2022-10-08T23:25:19.748Z,24.20
2022-10-08T23:31:32.458Z,24.50
2022-10-08T23:37:43.151Z,24.80
2022-10-08T23:43:59.511Z,25.10
2022-10-08T23:50:10.703Z,25.30
2022-10-08T23:56:20.694Z,25.60
